createdAt,value
2023-03-12T00:02:36.165Z,6.90
2023-03-12T00:05:40.750Z,5.67
2023-03-12T00:08:44.689Z,3.33
2023-03-12T00:11:48.523Z,3.13
2023-03-12T00:14:52.169Z,7.37
2023-03-12T00:17:57.209Z,9.57
2023-03-12T00:21:00.806Z,3.60
2023-03-12T00:24:05.630Z,6.43
2023-03-12T00:27:09.323Z,6.43
2023-03-12T00:30:14.150Z,6.97
2023-03-12T00:33:19.153Z,5.87
2023-03-12T00:36:27.220Z,4.23
2023-03-12T00:39:30.874Z,9.53
2023-03-12T00:42:34.798Z,5.17
2023-03-12T00:45:38.933Z,7.53
2023-03-12T00:48:44.653Z,4.30
2023-03-12T00:51:48.750Z,4.97
2023-03-12T00:54:52.642Z,7.00
2023-03-12T00:57:56.549Z,8.07
2023-03-12T01:01:00.460Z,4.10
2023-03-12T01:04:05.914Z,3.07
2023-03-12T01:07:09.658Z,3.90
2023-03-12T01:10:18.410Z,6.03
2023-03-12T01:13:22.730Z,6.97
2023-03-12T01:16:28.627Z,4.23
2023-03-12T01:19:33.985Z,6.13
2023-03-12T01:22:38.619Z,6.77
2023-03-12T01:25:42.956Z,4.20
2023-03-12T01:28:46.652Z,5.80
2023-03-12T01:31:52.308Z,4.53
2023-03-12T01:34:58.903Z,4.60
2023-03-12T01:38:03.281Z,4.90
2023-03-12T01:41:06.990Z,3.50
2023-03-12T01:44:15.978Z,3.47
2023-03-12T01:47:19.981Z,5.17
2023-03-12T01:50:25.103Z,6.50
2023-03-12T01:53:30.787Z,5.57
2023-03-12T01:56:37.694Z,3.37
2023-03-12T01:59:48.207Z,3.53
2023-03-12T02:02:56.302Z,3.40
2023-03-12T02:06:10.029Z,3.27
2023-03-12T02:09:15.517Z,5.17
2023-03-12T02:12:19.744Z,3.40
2023-03-12T02:15:23.999Z,3.33
2023-03-12T02:18:28.497Z,3.80
2023-03-12T02:21:37.481Z,4.43
2023-03-12T02:24:48.319Z,4.07
2023-03-12T02:27:54.123Z,5.77
2023-03-12T02:31:03.656Z,3.43
2023-03-12T02:34:08.642Z,4.53
2023-03-12T02:37:12.400Z,3.13
2023-03-12T02:40:26.337Z,3.57
2023-03-12T02:43:32.025Z,5.10
2023-03-12T02:46:41.300Z,4.77
2023-03-12T02:49:45.079Z,3.70
2023-03-12T02:52:48.643Z,6.20
2023-03-12T02:55:52.360Z,3.30
2023-03-12T02:58:57.384Z,8.53
2023-03-12T03:02:03.353Z,6.07
2023-03-12T03:05:08.413Z,4.10
2023-03-12T03:08:12.188Z,3.77
2023-03-12T03:11:15.995Z,7.40
2023-03-12T03:14:21.419Z,4.43
2023-03-12T03:17:25.165Z,4.47
2023-03-12T03:20:28.783Z,4.77
2023-03-12T03:23:33.281Z,4.97
2023-03-12T03:26:37.164Z,5.90
2023-03-12T03:29:42.635Z,6.67
2023-03-12T03:32:46.342Z,5.97
2023-03-12T03:35:50.232Z,4.63
2023-03-12T03:38:53.913Z,6.03
2023-03-12T03:41:57.625Z,6.53
2023-03-12T03:45:02.630Z,8.07
2023-03-12T03:48:07.225Z,5.17
2023-03-12T03:51:12.732Z,6.37
2023-03-12T03:54:16.430Z,9.90
2023-03-12T03:57:20.197Z,4.40
2023-03-12T04:00:25.642Z,6.43
2023-03-12T04:03:29.534Z,5.10
2023-03-12T04:06:33.209Z,3.80
2023-03-12T04:09:37.479Z,5.33
2023-03-12T04:12:41.189Z,4.97
2023-03-12T04:15:50.824Z,5.97
2023-03-12T04:18:54.817Z,8.30
2023-03-12T04:21:58.366Z,5.50
2023-03-12T04:25:02.173Z,4.17
2023-03-12T04:28:06.708Z,8.70
2023-03-12T04:31:13.699Z,7.30
2023-03-12T04:34:17.364Z,4.47
2023-03-12T04:37:20.967Z,6.07
2023-03-12T04:40:24.673Z,7.17
2023-03-12T04:43:29.058Z,7.23
2023-03-12T04:46:34.087Z,8.83
2023-03-12T04:49:39.404Z,6.80
2023-03-12T04:52:43.090Z,5.03
2023-03-12T04:55:46.691Z,6.70
2023-03-12T04:58:50.625Z,8.33
2023-03-12T05:01:55.598Z,7.13
2023-03-12T05:04:59.293Z,7.13
2023-03-12T05:08:02.973Z,5.53
2023-03-12T05:11:07.295Z,6.63
2023-03-12T05:14:12.727Z,6.10
2023-03-12T05:17:17.834Z,9.27
2023-03-12T05:20:21.881Z,7.60
2023-03-12T05:23:25.607Z,7.13
2023-03-12T05:26:32.567Z,5.10
2023-03-12T05:29:36.666Z,5.43
2023-03-12T05:32:41.786Z,5.37
2023-03-12T05:35:45.476Z,5.83
2023-03-12T05:38:49.191Z,5.57
2023-03-12T05:41:54.069Z,6.80
2023-03-12T05:44:59.342Z,5.70
2023-03-12T05:48:04.528Z,6.97
2023-03-12T05:51:08.297Z,4.53
2023-03-12T05:54:12.027Z,6.87
2023-03-12T05:57:15.909Z,9.43
2023-03-12T06:00:21.770Z,8.30
2023-03-12T06:03:26.971Z,7.37
2023-03-12T06:06:32.803Z,8.57
2023-03-12T06:09:37.711Z,6.83
2023-03-12T06:12:41.712Z,6.70
2023-03-12T06:15:45.409Z,6.77
2023-03-12T06:18:54.206Z,5.93
2023-03-12T06:21:58.078Z,6.47
2023-03-12T06:25:01.786Z,6.43
2023-03-12T06:28:05.839Z,4.40
2023-03-12T06:31:10.119Z,9.23
2023-03-12T06:34:16.889Z,9.93
2023-03-12T06:37:20.542Z,6.97
2023-03-12T06:40:24.194Z,4.90
2023-03-12T06:43:30.279Z,6.33
2023-03-12T06:46:34.402Z,7.77
2023-03-12T06:49:39.738Z,6.80
2023-03-12T06:52:43.370Z,7.63
2023-03-12T06:55:48.168Z,6.87
2023-03-12T06:58:51.765Z,5.87
2023-03-12T07:01:55.383Z,4.60
2023-03-12T07:05:00.422Z,5.50
2023-03-12T07:08:04.627Z,7.07
2023-03-12T07:11:08.442Z,5.47
2023-03-12T07:14:12.078Z,6.83
2023-03-12T07:17:15.683Z,8.40
2023-03-12T07:20:21.284Z,6.60
2023-03-12T07:23:25.257Z,5.00
2023-03-12T07:26:28.959Z,5.80
2023-03-12T07:29:32.564Z,5.57
2023-03-12T07:32:36.879Z,7.30
2023-03-12T07:35:42.210Z,6.63
2023-03-12T07:38:45.869Z,5.70
2023-03-12T07:41:50.469Z,8.53
2023-03-12T07:44:54.111Z,6.77
2023-03-12T07:47:57.952Z,6.13
2023-03-12T07:51:03.422Z,6.47
2023-03-12T07:54:10.670Z,7.17
2023-03-12T07:57:14.646Z,5.87
2023-03-12T08:00:18.911Z,5.63
2023-03-12T08:03:22.754Z,8.10
2023-03-12T08:06:28.743Z,7.53
2023-03-12T08:09:33.270Z,5.47
2023-03-12T08:12:38.367Z,7.80
2023-03-12T08:15:42.081Z,8.50
2023-03-12T08:18:45.860Z,8.23
2023-03-12T08:21:52.031Z,5.73
2023-03-12T08:24:55.642Z,10.37
2023-03-12T08:27:59.274Z,8.17
2023-03-12T08:31:03.725Z,9.30
2023-03-12T08:34:07.369Z,6.27
2023-03-12T08:37:12.392Z,7.67
2023-03-12T08:40:16.013Z,8.00
2023-03-12T08:43:19.745Z,9.10
2023-03-12T08:46:23.529Z,7.67
2023-03-12T08:49:27.426Z,5.37
2023-03-12T08:52:32.611Z,5.70
2023-03-12T08:55:36.222Z,8.77
2023-03-12T08:58:39.969Z,6.37
2023-03-12T09:01:44.050Z,7.10
2023-03-12T09:04:49.886Z,7.40
2023-03-12T09:07:55.247Z,6.50
2023-03-12T09:10:58.901Z,5.40
2023-03-12T09:14:36.653Z,5.53
2023-03-12T09:17:27.422Z,6.33
2023-03-12T09:20:31.292Z,5.73
2023-03-12T09:23:36.410Z,7.13
2023-03-12T09:26:40.166Z,5.73
2023-03-12T09:29:58.717Z,5.37
2023-03-12T09:33:03.862Z,8.27
2023-03-12T09:36:08.575Z,6.83
2023-03-12T09:39:14.386Z,6.47
2023-03-12T09:42:26.698Z,7.53
2023-03-12T09:45:37.558Z,6.63
2023-03-12T09:48:41.992Z,4.40
2023-03-12T09:51:52.559Z,5.87
2023-03-12T09:55:08.762Z,6.40
2023-03-12T09:58:19.548Z,4.97
2023-03-12T10:01:39.216Z,5.57
2023-03-12T10:04:58.857Z,4.20
2023-03-12T10:08:24.588Z,7.83
2023-03-12T10:11:50.997Z,5.13
2023-03-12T10:15:16.369Z,5.07
2023-03-12T10:18:39.511Z,4.97
2023-03-12T10:21:54.052Z,6.33
2023-03-12T10:25:12.200Z,5.47
2023-03-12T10:28:23.023Z,6.03
2023-03-12T10:31:35.935Z,3.57
2023-03-12T10:34:45.184Z,5.43
2023-03-12T10:37:52.258Z,4.70
2023-03-12T10:40:55.892Z,5.43
2023-03-12T10:44:08.994Z,4.83
2023-03-12T10:47:31.597Z,5.17
2023-03-12T10:50:37.627Z,7.63
2023-03-12T10:53:44.966Z,6.43
2023-03-12T10:56:52.055Z,8.30
2023-03-12T11:00:12.018Z,7.60
2023-03-12T11:03:24.213Z,4.07
2023-03-12T11:06:31.674Z,5.03
2023-03-12T11:09:35.444Z,6.43
2023-03-12T11:12:41.530Z,4.37
2023-03-12T11:15:46.586Z,8.93
2023-03-12T11:18:59.959Z,5.77
2023-03-12T11:22:07.310Z,5.13
2023-03-12T11:25:25.509Z,6.20
2023-03-12T11:28:40.665Z,4.57
2023-03-12T11:31:57.249Z,3.63
2023-03-12T11:35:01.757Z,23.90
2023-03-12T11:38:17.427Z,4.83
2023-03-12T11:41:53.815Z,3.43
2023-03-12T11:45:14.202Z,12.20
2023-03-12T11:48:30.647Z,8.00
2023-03-12T11:51:52.653Z,4.30
2023-03-12T11:55:39.720Z,9.07
2023-03-12T11:59:04.155Z,5.77
2023-03-12T12:02:36.456Z,7.97
2023-03-12T12:05:56.775Z,4.60
2023-03-12T12:09:26.417Z,9.00
2023-03-12T12:12:55.678Z,7.33
2023-03-12T12:16:19.233Z,4.83
2023-03-12T12:19:48.535Z,6.77
2023-03-12T12:23:15.905Z,5.30
2023-03-12T12:26:30.348Z,6.03
2023-03-12T12:29:56.137Z,10.80
2023-03-12T12:33:24.522Z,8.77
2023-03-12T12:36:35.325Z,7.20
2023-03-12T12:39:49.929Z,5.10
2023-03-12T12:43:12.481Z,6.70
2023-03-12T12:46:22.803Z,5.13
2023-03-12T12:49:40.877Z,7.83
2023-03-12T12:52:46.138Z,12.23
2023-03-12T12:56:09.910Z,5.77
2023-03-12T12:59:39.486Z,8.03
2023-03-12T13:02:48.228Z,5.53
2023-03-12T13:06:02.502Z,7.23
2023-03-12T13:09:21.736Z,7.13
2023-03-12T13:12:34.847Z,8.87
2023-03-12T13:15:49.141Z,5.87
2023-03-12T13:19:02.052Z,5.90
2023-03-12T13:22:22.588Z,9.47
2023-03-12T13:25:49.973Z,7.37
2023-03-12T13:29:36.700Z,6.40
2023-03-12T13:33:14.242Z,6.47
2023-03-12T13:36:28.289Z,7.53
2023-03-12T13:39:35.745Z,10.97
2023-03-12T13:42:43.749Z,9.33
2023-03-12T13:46:09.173Z,8.87
2023-03-12T13:49:21.643Z,5.43
2023-03-12T13:52:31.027Z,8.43
2023-03-12T13:55:37.837Z,9.70
2023-03-12T13:58:50.494Z,8.53
2023-03-12T14:02:06.146Z,7.43
2023-03-12T14:05:15.158Z,9.67
2023-03-12T14:08:59.194Z,8.50
2023-03-12T14:12:12.827Z,7.50
2023-03-12T14:15:49.104Z,8.50
2023-03-12T14:18:56.226Z,7.63
2023-03-12T14:22:08.467Z,8.67
2023-03-12T14:25:24.573Z,7.07
2023-03-12T14:28:32.069Z,7.17
2023-03-12T14:31:38.368Z,7.57
2023-03-12T14:34:48.579Z,8.30
2023-03-12T14:38:01.494Z,8.50
2023-03-12T14:41:14.815Z,8.40
2023-03-12T14:44:26.595Z,11.17
2023-03-12T14:47:31.407Z,12.03
2023-03-12T14:50:42.995Z,10.27
2023-03-12T14:53:46.729Z,11.67
2023-03-12T14:56:50.789Z,14.37
2023-03-12T14:59:56.657Z,12.23
2023-03-12T15:03:06.600Z,12.93
2023-03-12T15:06:21.048Z,13.17
2023-03-12T15:09:29.690Z,12.90
2023-03-12T15:12:39.303Z,13.23
2023-03-12T15:15:47.529Z,17.53
2023-03-12T15:18:53.044Z,16.87
2023-03-12T15:21:58.671Z,14.30
2023-03-12T15:25:05.509Z,15.50
2023-03-12T15:28:30.281Z,12.73
2023-03-12T15:31:44.948Z,16.93
2023-03-12T15:34:50.159Z,16.73
2023-03-12T15:38:03.753Z,16.60
2023-03-12T15:41:21.581Z,14.63
2023-03-12T15:44:30.207Z,17.80
2023-03-12T15:47:41.579Z,16.40
2023-03-12T15:50:47.314Z,17.33
2023-03-12T15:54:02.433Z,16.07
2023-03-12T15:57:25.198Z,15.27
2023-03-12T16:00:32.685Z,18.57
2023-03-12T16:03:37.727Z,18.07
2023-03-12T16:06:44.602Z,19.50
2023-03-12T16:09:50.134Z,21.10
2023-03-12T16:13:03.222Z,20.30
2023-03-12T16:16:08.305Z,18.20
2023-03-12T16:19:15.646Z,18.87
2023-03-12T16:22:20.466Z,25.20
2023-03-12T16:25:27.661Z,27.17
2023-03-12T16:28:32.359Z,25.70
2023-03-12T16:31:36.356Z,25.20
2023-03-12T16:34:40.232Z,23.00
2023-03-12T16:37:44.988Z,27.93
2023-03-12T16:40:53.025Z,26.57
2023-03-12T16:43:56.982Z,28.20
2023-03-12T16:47:02.241Z,28.67
2023-03-12T16:50:18.619Z,33.47
2023-03-12T16:53:23.566Z,27.57
2023-03-12T16:56:31.510Z,39.80
2023-03-12T16:59:38.182Z,33.40
2023-03-12T17:02:43.001Z,33.50
2023-03-12T17:05:47.600Z,31.83
2023-03-12T17:08:53.959Z,39.83
2023-03-12T17:12:00.475Z,39.33
2023-03-12T17:15:08.981Z,40.83
2023-03-12T17:18:13.836Z,44.43
2023-03-12T17:21:20.751Z,47.60
2023-03-12T17:24:28.063Z,41.43
2023-03-12T17:27:34.029Z,40.23
2023-03-12T17:30:38.839Z,40.83
2023-03-12T17:33:43.309Z,38.97
2023-03-12T17:36:47.020Z,44.23
2023-03-12T17:39:50.787Z,36.23
2023-03-12T17:42:56.287Z,42.70
2023-03-12T17:46:05.753Z,42.40
2023-03-12T17:49:10.479Z,39.77
2023-03-12T17:52:14.236Z,43.27
2023-03-12T17:55:18.549Z,44.17
2023-03-12T17:58:23.910Z,44.37
2023-03-12T18:01:28.472Z,48.53
2023-03-12T18:04:33.315Z,40.57
2023-03-12T18:07:37.903Z,46.03
2023-03-12T18:10:42.040Z,39.90
2023-03-12T18:13:49.500Z,39.90
2023-03-12T18:16:54.258Z,41.07
2023-03-12T18:19:59.305Z,43.13
2023-03-12T18:23:03.068Z,43.60
2023-03-12T18:26:10.241Z,43.20
2023-03-12T18:29:15.412Z,47.57
2023-03-12T18:32:20.314Z,45.00
2023-03-12T18:35:30.560Z,45.93
2023-03-12T18:38:35.797Z,38.60
2023-03-12T18:41:42.026Z,38.67
2023-03-12T18:44:48.132Z,44.87
2023-03-12T18:47:52.590Z,39.07
2023-03-12T18:50:57.101Z,50.70
2023-03-12T18:54:03.146Z,48.50
2023-03-12T18:57:07.287Z,46.50
2023-03-12T19:00:18.278Z,43.77
2023-03-12T19:03:24.424Z,43.57
2023-03-12T19:06:29.648Z,44.70
2023-03-12T19:09:37.625Z,40.33
2023-03-12T19:12:52.087Z,35.60
2023-03-12T19:16:03.948Z,35.13
2023-03-12T19:19:07.651Z,50.30
2023-03-12T19:22:11.256Z,50.60
2023-03-12T19:25:15.839Z,36.07
2023-03-12T19:28:19.616Z,38.73
2023-03-12T19:31:25.430Z,43.50
2023-03-12T19:34:29.349Z,39.47
2023-03-12T19:37:32.917Z,37.07
2023-03-12T19:40:36.887Z,35.53
2023-03-12T19:43:41.311Z,43.20
2023-03-12T19:46:46.468Z,30.20
2023-03-12T19:49:50.285Z,39.57
2023-03-12T19:52:53.949Z,33.20
2023-03-12T19:55:57.536Z,39.07
2023-03-12T19:59:01.130Z,42.37
2023-03-12T20:02:06.417Z,35.87
2023-03-12T20:05:12.075Z,37.47
2023-03-12T20:08:15.893Z,33.77
2023-03-12T20:11:19.595Z,37.20
2023-03-12T20:14:23.318Z,36.73
2023-03-12T20:17:28.520Z,34.23
2023-03-12T20:20:32.224Z,39.93
2023-03-12T20:23:36.078Z,41.77
2023-03-12T20:26:40.267Z,44.83
2023-03-12T20:29:46.205Z,36.37
2023-03-12T20:32:51.219Z,42.80
2023-03-12T20:35:56.162Z,39.47
2023-03-12T20:38:59.917Z,34.53
2023-03-12T20:42:03.629Z,36.00
2023-03-12T20:45:08.874Z,37.13
2023-03-12T20:48:13.882Z,37.63
2023-03-12T20:51:18.015Z,36.73
2023-03-12T20:54:22.016Z,45.80
2023-03-12T20:57:25.692Z,36.47
2023-03-12T21:00:29.424Z,39.50
2023-03-12T21:03:35.394Z,39.87
2023-03-12T21:06:39.187Z,33.70
2023-03-12T21:09:42.823Z,40.37
2023-03-12T21:12:47.349Z,36.50
2023-03-12T21:15:52.129Z,45.17
2023-03-12T21:18:59.745Z,46.60
2023-03-12T21:22:03.313Z,43.03
2023-03-12T21:25:08.243Z,39.07
2023-03-12T21:28:12.160Z,34.77
2023-03-12T21:31:18.201Z,40.27
2023-03-12T21:34:23.711Z,31.53
2023-03-12T21:37:28.363Z,36.50
2023-03-12T21:40:32.020Z,40.93
2023-03-12T21:43:35.713Z,41.60
2023-03-12T21:46:39.567Z,33.80
2023-03-12T21:49:44.897Z,29.70
2023-03-12T21:52:49.460Z,31.03
2023-03-12T21:55:57.506Z,22.47
2023-03-12T21:59:01.092Z,31.30
2023-03-12T22:02:04.822Z,36.00
2023-03-12T22:05:11.612Z,34.07
2023-03-12T22:08:15.214Z,38.80
2023-03-12T22:11:19.092Z,26.63
2023-03-12T22:14:24.224Z,37.87
2023-03-12T22:17:27.858Z,27.83
2023-03-12T22:20:34.858Z,25.73
2023-03-12T22:23:38.780Z,29.77
2023-03-12T22:26:42.416Z,26.47
2023-03-12T22:29:46.127Z,20.60
2023-03-12T22:32:49.925Z,29.40
2023-03-12T22:35:55.850Z,25.00
2023-03-12T22:38:59.510Z,28.23
2023-03-12T22:42:03.265Z,25.83
2023-03-12T22:45:08.940Z,31.67
2023-03-12T22:48:12.633Z,25.07
2023-03-12T22:51:17.603Z,33.73
2023-03-12T22:54:21.295Z,24.87
2023-03-12T22:57:25.018Z,19.83
2023-03-12T23:00:28.718Z,23.47
2023-03-12T23:03:36.148Z,26.57
2023-03-12T23:06:41.258Z,29.80
2023-03-12T23:09:45.100Z,30.53
2023-03-12T23:12:48.684Z,25.87
2023-03-12T23:15:53.203Z,27.73
2023-03-12T23:18:57.339Z,23.53
2023-03-12T23:22:02.352Z,30.70
2023-03-12T23:25:06.966Z,21.77
2023-03-12T23:28:10.633Z,28.97
2023-03-12T23:31:16.153Z,31.30
2023-03-12T23:34:20.142Z,33.37
2023-03-12T23:37:25.304Z,38.47
2023-03-12T23:40:28.937Z,34.07
2023-03-12T23:43:32.979Z,33.37
2023-03-12T23:46:36.609Z,31.27
2023-03-12T23:49:40.229Z,35.77
2023-03-12T23:52:45.152Z,31.67
2023-03-12T23:55:57.415Z,32.70
2023-03-12T23:59:01.180Z,39.77
